sensor_id;sensor_type;location;lat;lon;timestamp;pressure;altitude;pressure_sealevel;temperature;humidity
7337;BME280;54510;42.016;23.098;2023-05-31T00:01:06;-21703.09;;;20.77;66.05
7337;BME280;54510;42.016;23.098;2023-05-31T00:03:32;-21699.69;;;20.64;66.34
7337;BME280;54510;42.016;23.098;2023-05-31T00:05:57;-21702.69;;;20.75;66.43
7337;BME280;54510;42.016;23.098;2023-05-31T00:08:22;-21704.19;;;20.81;65.91
7337;BME280;54510;42.016;23.098;2023-05-31T00:10:47;-21705.84;;;20.87;65.93
7337;BME280;54510;42.016;23.098;2023-05-31T00:13:13;-21702.28;;;20.74;65.90
7337;BME280;54510;42.016;23.098;2023-05-31T00:15:38;-21703.50;;;20.78;66.05
7337;BME280;54510;42.016;23.098;2023-05-31T00:18:03;-21706.66;;;20.90;65.71
7337;BME280;54510;42.016;23.098;2023-05-31T00:20:28;-21710.09;;;21.03;65.15
7337;BME280;54510;42.016;23.098;2023-05-31T00:22:54;-21702.16;;;20.73;65.77
7337;BME280;54510;42.016;23.098;2023-05-31T00:25:19;-21698.72;;;20.61;67.00
7337;BME280;54510;42.016;23.098;2023-05-31T00:27:45;-21699.97;;;20.65;66.16
7337;BME280;54510;42.016;23.098;2023-05-31T00:30:10;-21694.06;;;20.43;66.62
7337;BME280;54510;42.016;23.098;2023-05-31T00:32:36;-21696.41;;;20.52;66.35
7337;BME280;54510;42.016;23.098;2023-05-31T00:35:01;-21698.72;;;20.61;66.10
7337;BME280;54510;42.016;23.098;2023-05-31T00:37:26;-21699.53;;;20.64;66.21
7337;BME280;54510;42.016;23.098;2023-05-31T00:39:51;-21700.50;;;20.67;65.64
7337;BME280;54510;42.016;23.098;2023-05-31T00:42:17;-21694.34;;;20.44;66.17
7337;BME280;54510;42.016;23.098;2023-05-31T00:44:42;-21693.78;;;20.42;66.67
7337;BME280;54510;42.016;23.098;2023-05-31T00:47:07;-21696.53;;;20.53;66.42
7337;BME280;54510;42.016;23.098;2023-05-31T00:49:33;-21697.34;;;20.56;66.16
7337;BME280;54510;42.016;23.098;2023-05-31T00:51:59;-21698.31;;;20.59;66.07
7337;BME280;54510;42.016;23.098;2023-05-31T00:54:25;-21699.53;;;20.64;66.10
7337;BME280;54510;42.016;23.098;2023-05-31T00:56:50;-21701.59;;;20.71;66.20
7337;BME280;54510;42.016;23.098;2023-05-31T00:59:15;-21697.22;;;20.55;66.83
7337;BME280;54510;42.016;23.098;2023-05-31T01:01:41;-21699.97;;;20.65;66.32
7337;BME280;54510;42.016;23.098;2023-05-31T01:04:07;-21702.16;;;20.73;66.12
7337;BME280;54510;42.016;23.098;2023-05-31T01:06:33;-21705.56;;;20.86;65.99
7337;BME280;54510;42.016;23.098;2023-05-31T01:09:00;-21707.06;;;20.92;65.78
7337;BME280;54510;42.016;23.098;2023-05-31T01:11:29;-21705.72;;;20.86;65.90
7337;BME280;54510;42.016;23.098;2023-05-31T01:14:16;-21705.28;;;20.85;66.33
7337;BME280;54510;42.016;23.098;2023-05-31T01:16:45;-21705.72;;;20.86;65.47
7337;BME280;54510;42.016;23.098;2023-05-31T01:19:13;-21697.63;;;20.57;66.48
7337;BME280;54510;42.016;23.098;2023-05-31T01:22:19;-21694.34;;;20.44;66.68
7337;BME280;54510;42.016;23.098;2023-05-31T01:24:53;-21681.72;;;19.98;68.39
7337;BME280;54510;42.016;23.098;2023-05-31T01:27:24;-21678.28;;;19.85;68.87
7337;BME280;54510;42.016;23.098;2023-05-31T01:29:50;-21676.38;;;19.78;68.92
7337;BME280;54510;42.016;23.098;2023-05-31T01:32:17;-21675.81;;;19.76;69.19
7337;BME280;54510;42.016;23.098;2023-05-31T01:34:44;-21673.50;;;19.67;69.73
7337;BME280;54510;42.016;23.098;2023-05-31T01:37:10;-21677.31;;;19.82;69.37
7337;BME280;54510;42.016;23.098;2023-05-31T01:39:35;-21676.09;;;19.77;69.13
7337;BME280;54510;42.016;23.098;2023-05-31T01:42:00;-21668.81;;;19.50;70.04
7337;BME280;54510;42.016;23.098;2023-05-31T01:44:26;-21678.28;;;19.85;69.43
7337;BME280;54510;42.016;23.098;2023-05-31T01:46:52;-21673.34;;;19.67;69.58
7337;BME280;54510;42.016;23.098;2023-05-31T01:49:17;-21677.59;;;19.83;70.19
7337;BME280;54510;42.016;23.098;2023-05-31T01:51:43;-21671.56;;;19.60;70.40
7337;BME280;54510;42.016;23.098;2023-05-31T01:54:10;-21672.81;;;19.65;70.73
7337;BME280;54510;42.016;23.098;2023-05-31T01:56:35;-21673.34;;;19.67;70.31
7337;BME280;54510;42.016;23.098;2023-05-31T01:59:02;-21666.22;;;19.41;70.38
7337;BME280;54510;42.016;23.098;2023-05-31T02:01:29;-21668.97;;;19.51;70.41
7337;BME280;54510;42.016;23.098;2023-05-31T02:03:55;-21670.06;;;19.55;70.12
7337;BME280;54510;42.016;23.098;2023-05-31T02:06:20;-21669.91;;;19.54;70.12
7337;BME280;54510;42.016;23.098;2023-05-31T02:08:46;-21669.50;;;19.53;70.30
7337;BME280;54510;42.016;23.098;2023-05-31T02:11:11;-21665.53;;;19.38;70.55
7337;BME280;54510;42.016;23.098;2023-05-31T02:13:37;-21667.44;;;19.45;70.83
7337;BME280;54510;42.016;23.098;2023-05-31T02:16:02;-21665.78;;;19.39;70.92
7337;BME280;54510;42.016;23.098;2023-05-31T02:18:30;-21667.72;;;19.46;70.86
7337;BME280;54510;42.016;23.098;2023-05-31T02:20:56;-21668.81;;;19.50;70.95
7337;BME280;54510;42.016;23.098;2023-05-31T02:23:21;-21670.19;;;19.55;71.00
7337;BME280;54510;42.016;23.098;2023-05-31T02:25:47;-21672.53;;;19.64;71.14
7337;BME280;54510;42.016;23.098;2023-05-31T02:28:13;-21673.91;;;19.69;70.18
7337;BME280;54510;42.016;23.098;2023-05-31T02:30:38;-21676.09;;;19.77;69.92
7337;BME280;54510;42.016;23.098;2023-05-31T02:33:05;-21668.69;;;19.50;70.37
7337;BME280;54510;42.016;23.098;2023-05-31T02:35:30;-21668.97;;;19.51;70.65
7337;BME280;54510;42.016;23.098;2023-05-31T02:37:55;-21668.41;;;19.49;70.92
7337;BME280;54510;42.016;23.098;2023-05-31T02:40:21;-21672.81;;;19.65;70.08
7337;BME280;54510;42.016;23.098;2023-05-31T02:42:46;-21677.06;;;19.81;69.81
7337;BME280;54510;42.016;23.098;2023-05-31T02:45:11;-21674.72;;;19.72;69.89
7337;BME280;54510;42.016;23.098;2023-05-31T02:47:37;-21674.72;;;19.72;70.11
7337;BME280;54510;42.016;23.098;2023-05-31T02:50:07;-21675.69;;;19.76;70.58
7337;BME280;54510;42.016;23.098;2023-05-31T02:52:36;-21672.66;;;19.64;70.51
7337;BME280;54510;42.016;23.098;2023-05-31T02:55:01;-21673.50;;;19.67;71.27
7337;BME280;54510;42.016;23.098;2023-05-31T02:57:27;-21681.03;;;19.95;70.72
7337;BME280;54510;42.016;23.098;2023-05-31T02:59:54;-21678.84;;;19.87;70.88
7337;BME280;54510;42.016;23.098;2023-05-31T03:02:20;-21676.91;;;19.80;70.81
7337;BME280;54510;42.016;23.098;2023-05-31T03:04:46;-21679.38;;;19.89;70.78
7337;BME280;54510;42.016;23.098;2023-05-31T03:07:11;-21681.72;;;19.98;69.97
7337;BME280;54510;42.016;23.098;2023-05-31T03:09:37;-21678.16;;;19.85;70.24
7337;BME280;54510;42.016;23.098;2023-05-31T03:12:02;-21668.81;;;19.50;70.95
7337;BME280;54510;42.016;23.098;2023-05-31T03:14:27;-21674.72;;;19.72;70.64
7337;BME280;54510;42.016;23.098;2023-05-31T03:16:53;-21675.00;;;19.73;70.40
7337;BME280;54510;42.016;23.098;2023-05-31T03:19:18;-21673.75;;;19.68;70.72
7337;BME280;54510;42.016;23.098;2023-05-31T03:21:43;-21673.06;;;19.66;70.61
7337;BME280;54510;42.016;23.098;2023-05-31T03:24:09;-21673.34;;;19.67;70.03
7337;BME280;54510;42.016;23.098;2023-05-31T03:26:34;-21675.81;;;19.76;70.29
7337;BME280;54510;42.016;23.098;2023-05-31T03:28:59;-21680.06;;;19.92;69.92
7337;BME280;54510;42.016;23.098;2023-05-31T03:31:25;-21680.75;;;19.94;70.31
7337;BME280;54510;42.016;23.098;2023-05-31T03:33:54;-21675.97;;;19.77;71.18
7337;BME280;54510;42.016;23.098;2023-05-31T03:36:19;-21673.75;;;19.68;71.77
7337;BME280;54510;42.016;23.098;2023-05-31T03:38:44;-21679.66;;;19.90;71.92
7337;BME280;54510;42.016;23.098;2023-05-31T03:41:10;-21674.59;;;19.71;71.92
7337;BME280;54510;42.016;23.098;2023-05-31T03:43:35;-21673.91;;;19.69;72.51
7337;BME280;54510;42.016;23.098;2023-05-31T03:46:00;-21670.06;;;19.55;73.36
7337;BME280;54510;42.016;23.098;2023-05-31T03:48:26;-21671.28;;;19.59;73.09
7337;BME280;54510;42.016;23.098;2023-05-31T03:50:52;-21673.06;;;19.66;72.93
7337;BME280;54510;42.016;23.098;2023-05-31T03:53:17;-21672.38;;;19.63;72.66
7337;BME280;54510;42.016;23.098;2023-05-31T03:55:42;-21678.69;;;19.87;72.04
7337;BME280;54510;42.016;23.098;2023-05-31T03:58:07;-21681.84;;;19.98;71.83
7337;BME280;54510;42.016;23.098;2023-05-31T04:00:33;-21684.03;;;20.06;70.97
7337;BME280;54510;42.016;23.098;2023-05-31T04:02:59;-21687.19;;;20.18;70.64
7337;BME280;54510;42.016;23.098;2023-05-31T04:05:24;-21683.50;;;20.04;71.52
7337;BME280;54510;42.016;23.098;2023-05-31T04:07:50;-21688.84;;;20.24;71.19
7337;BME280;54510;42.016;23.098;2023-05-31T04:10:15;-21687.06;;;20.18;71.12
7337;BME280;54510;42.016;23.098;2023-05-31T04:12:40;-21685.16;;;20.10;70.57
7337;BME280;54510;42.016;23.098;2023-05-31T04:15:06;-21684.19;;;20.07;71.05
7337;BME280;54510;42.016;23.098;2023-05-31T04:17:31;-21684.31;;;20.07;70.96
7337;BME280;54510;42.016;23.098;2023-05-31T04:19:56;-21686.78;;;20.17;71.26
7337;BME280;54510;42.016;23.098;2023-05-31T04:22:21;-21692.84;;;20.39;70.73
7337;BME280;54510;42.016;23.098;2023-05-31T04:24:47;-21695.84;;;20.50;70.08
7337;BME280;54510;42.016;23.098;2023-05-31T04:27:13;-21693.25;;;20.40;69.58
7337;BME280;54510;42.016;23.098;2023-05-31T04:29:44;-21687.47;;;20.19;70.28
7337;BME280;54510;42.016;23.098;2023-05-31T04:32:10;-21692.69;;;20.38;69.88
7337;BME280;54510;42.016;23.098;2023-05-31T04:34:39;-21694.34;;;20.44;69.72
7337;BME280;54510;42.016;23.098;2023-05-31T04:37:05;-21686.94;;;20.17;70.46
7337;BME280;54510;42.016;23.098;2023-05-31T04:39:30;-21689.25;;;20.26;70.35
7337;BME280;54510;42.016;23.098;2023-05-31T04:41:56;-21692.16;;;20.36;70.80
7337;BME280;54510;42.016;23.098;2023-05-31T04:44:21;-21696.81;;;20.54;70.30
7337;BME280;54510;42.016;23.098;2023-05-31T04:46:46;-21697.50;;;20.56;70.47
7337;BME280;54510;42.016;23.098;2023-05-31T04:49:12;-21704.59;;;20.82;69.70
7337;BME280;54510;42.016;23.098;2023-05-31T04:51:38;-21705.03;;;20.84;69.10
7337;BME280;54510;42.016;23.098;2023-05-31T04:54:03;-21704.75;;;20.83;69.42
7337;BME280;54510;42.016;23.098;2023-05-31T04:56:29;-21704.59;;;20.82;69.61
7337;BME280;54510;42.016;23.098;2023-05-31T04:58:54;-21705.28;;;20.85;69.36
7337;BME280;54510;42.016;23.098;2023-05-31T05:01:19;-21707.50;;;20.93;69.19
7337;BME280;54510;42.016;23.098;2023-05-31T05:03:44;-21706.38;;;20.89;69.68
7337;BME280;54510;42.016;23.098;2023-05-31T05:06:13;-21711.47;;;21.08;68.81
7337;BME280;54510;42.016;23.098;2023-05-31T05:08:39;-21719.25;;;21.37;67.58
7337;BME280;54510;42.016;23.098;2023-05-31T05:11:04;-21725.97;;;21.61;66.93
7337;BME280;54510;42.016;23.098;2023-05-31T05:13:30;-21727.88;;;21.68;66.56
7337;BME280;54510;42.016;23.098;2023-05-31T05:15:55;-21734.44;;;21.93;66.06
7337;BME280;54510;42.016;23.098;2023-05-31T05:18:21;-21733.22;;;21.88;66.16
7337;BME280;54510;42.016;23.098;2023-05-31T05:20:46;-21733.78;;;21.90;66.24
7337;BME280;54510;42.016;23.098;2023-05-31T05:23:11;-21724.75;;;21.57;66.87
7337;BME280;54510;42.016;23.098;2023-05-31T05:25:36;-21726.66;;;21.64;67.08
7337;BME280;54510;42.016;23.098;2023-05-31T05:28:02;-21728.28;;;21.70;67.15
7337;BME280;54510;42.016;23.098;2023-05-31T05:30:27;-21728.72;;;21.72;66.96
7337;BME280;54510;42.016;23.098;2023-05-31T05:32:53;-21729.94;;;21.76;66.30
7337;BME280;54510;42.016;23.098;2023-05-31T05:35:18;-21733.38;;;21.89;66.53
7337;BME280;54510;42.016;23.098;2023-05-31T05:37:44;-21736.91;;;22.02;66.40
7337;BME280;54510;42.016;23.098;2023-05-31T05:40:09;-21740.06;;;22.14;66.38
7337;BME280;54510;42.016;23.098;2023-05-31T05:42:34;-21742.66;;;22.23;66.08
7337;BME280;54510;42.016;23.098;2023-05-31T05:45:03;-21742.66;;;22.23;65.67
7337;BME280;54510;42.016;23.098;2023-05-31T05:47:29;-21743.22;;;22.25;65.34
7337;BME280;54510;42.016;23.098;2023-05-31T05:49:54;-21741.03;;;22.17;66.34
7337;BME280;54510;42.016;23.098;2023-05-31T05:52:19;-21742.13;;;22.21;65.95
7337;BME280;54510;42.016;23.098;2023-05-31T05:54:44;-21744.03;;;22.28;65.51
7337;BME280;54510;42.016;23.098;2023-05-31T05:57:10;-21745.94;;;22.35;65.40
7337;BME280;54510;42.016;23.098;2023-05-31T05:59:35;-21749.22;;;22.48;64.88
7337;BME280;54510;42.016;23.098;2023-05-31T06:02:02;-21750.19;;;22.51;65.10
7337;BME280;54510;42.016;23.098;2023-05-31T06:04:28;-21754.97;;;22.69;64.80
7337;BME280;54510;42.016;23.098;2023-05-31T06:06:53;-21755.78;;;22.72;64.42
7337;BME280;54510;42.016;23.098;2023-05-31T06:09:19;-21759.19;;;22.84;63.77
7337;BME280;54510;42.016;23.098;2023-05-31T06:11:44;-21760.69;;;22.90;63.47
7337;BME280;54510;42.016;23.098;2023-05-31T06:14:10;-21758.09;;;22.80;63.04
7337;BME280;54510;42.016;23.098;2023-05-31T06:16:35;-21762.63;;;22.97;63.39
7337;BME280;54510;42.016;23.098;2023-05-31T06:19:01;-21765.63;;;23.08;62.65
7337;BME280;54510;42.016;23.098;2023-05-31T06:21:26;-21769.84;;;23.24;62.80
7337;BME280;54510;42.016;23.098;2023-05-31T06:23:51;-21772.72;;;23.35;62.01
7337;BME280;54510;42.016;23.098;2023-05-31T06:26:17;-21771.50;;;23.30;62.17
7337;BME280;54510;42.016;23.098;2023-05-31T06:28:42;-21777.38;;;23.52;61.89
7337;BME280;54510;42.016;23.098;2023-05-31T06:31:07;-21778.72;;;23.57;60.35
7337;BME280;54510;42.016;23.098;2023-05-31T06:33:34;-21779.28;;;23.59;60.94
7337;BME280;54510;42.016;23.098;2023-05-31T06:35:59;-21785.81;;;23.83;60.29
7337;BME280;54510;42.016;23.098;2023-05-31T06:38:25;-21783.63;;;23.75;60.00
7337;BME280;54510;42.016;23.098;2023-05-31T06:40:51;-21791.41;;;24.04;59.55
7337;BME280;54510;42.016;23.098;2023-05-31T06:43:17;-21797.28;;;24.26;59.12
7337;BME280;54510;42.016;23.098;2023-05-31T06:45:42;-21794.69;;;24.16;58.83
7337;BME280;54510;42.016;23.098;2023-05-31T06:48:08;-21803.00;;;24.47;58.24
7337;BME280;54510;42.016;23.098;2023-05-31T06:50:34;-21798.63;;;24.31;57.78
7337;BME280;54510;42.016;23.098;2023-05-31T06:52:59;-21799.19;;;24.33;57.92
7337;BME280;54510;42.016;23.098;2023-05-31T06:55:24;-21797.41;;;24.26;57.92
7337;BME280;54510;42.016;23.098;2023-05-31T06:57:50;-21806.41;;;24.60;57.54
7337;BME280;54510;42.016;23.098;2023-05-31T07:00:15;-21808.19;;;24.66;57.41
7337;BME280;54510;42.016;23.098;2023-05-31T07:02:41;-21806.69;;;24.61;57.54
7337;BME280;54510;42.016;23.098;2023-05-31T07:05:06;-21807.63;;;24.64;57.09
7337;BME280;54510;42.016;23.098;2023-05-31T07:07:31;-21806.81;;;24.61;57.01
7337;BME280;54510;42.016;23.098;2023-05-31T07:09:57;-21811.84;;;24.80;56.74
7337;BME280;54510;42.016;23.098;2023-05-31T07:12:22;-21806.28;;;24.59;55.70
7337;BME280;54510;42.016;23.098;2023-05-31T07:14:50;-21806.53;;;24.60;56.78
7337;BME280;54510;42.016;23.098;2023-05-31T07:17:15;-21805.31;;;24.56;56.95
7337;BME280;54510;42.016;23.098;2023-05-31T07:19:47;-21807.09;;;24.62;55.96
7337;BME280;54510;42.016;23.098;2023-05-31T07:22:16;-21815.00;;;24.92;56.06
7337;BME280;54510;42.016;23.098;2023-05-31T07:24:43;-21817.84;;;25.02;55.74
7337;BME280;54510;42.016;23.098;2023-05-31T07:27:09;-21822.19;;;25.18;55.17
7337;BME280;54510;42.016;23.098;2023-05-31T07:29:35;-21820.56;;;25.12;55.17
7337;BME280;54510;42.016;23.098;2023-05-31T07:32:00;-21823.44;;;25.23;54.75
7337;BME280;54510;42.016;23.098;2023-05-31T07:34:26;-21826.69;;;25.35;54.05
7337;BME280;54510;42.016;23.098;2023-05-31T07:36:51;-21827.50;;;25.38;53.72
7337;BME280;54510;42.016;23.098;2023-05-31T07:39:16;-21823.44;;;25.23;54.46
7337;BME280;54510;42.016;23.098;2023-05-31T07:41:42;-21823.03;;;25.22;54.62
7337;BME280;54510;42.016;23.098;2023-05-31T07:44:08;-21827.38;;;25.38;54.18
7337;BME280;54510;42.016;23.098;2023-05-31T07:46:34;-21830.66;;;25.50;53.68
7337;BME280;54510;42.016;23.098;2023-05-31T07:49:01;-21826.00;;;25.33;53.92
7337;BME280;54510;42.016;23.098;2023-05-31T07:51:27;-21829.28;;;25.45;53.41
7337;BME280;54510;42.016;23.098;2023-05-31T07:53:53;-21835.81;;;25.69;53.01
7337;BME280;54510;42.016;23.098;2023-05-31T07:56:18;-21837.03;;;25.74;52.95
7337;BME280;54510;42.016;23.098;2023-05-31T07:58:43;-21837.59;;;25.76;52.88
7337;BME280;54510;42.016;23.098;2023-05-31T08:01:08;-21839.75;;;25.84;52.11
7337;BME280;54510;42.016;23.098;2023-05-31T08:03:34;-21840.56;;;25.87;52.23
7337;BME280;54510;42.016;23.098;2023-05-31T08:05:59;-21849.13;;;26.19;51.83
7337;BME280;54510;42.016;23.098;2023-05-31T08:08:24;-21844.38;;;26.01;51.74
7337;BME280;54510;42.016;23.098;2023-05-31T08:10:50;-21845.06;;;26.04;51.52
7337;BME280;54510;42.016;23.098;2023-05-31T08:13:15;-21842.63;;;25.94;51.85
7337;BME280;54510;42.016;23.098;2023-05-31T08:15:40;-21843.03;;;25.96;51.31
7337;BME280;54510;42.016;23.098;2023-05-31T08:18:06;-21842.34;;;25.93;51.10
7337;BME280;54510;42.016;23.098;2023-05-31T08:20:31;-21847.09;;;26.11;50.89
7337;BME280;54510;42.016;23.098;2023-05-31T08:22:57;-21850.09;;;26.22;50.33
7337;BME280;54510;42.016;23.098;2023-05-31T08:25:22;-21851.72;;;26.28;51.00
7337;BME280;54510;42.016;23.098;2023-05-31T08:27:49;-21852.28;;;26.30;50.68
7337;BME280;54510;42.016;23.098;2023-05-31T08:30:15;-21851.19;;;26.26;50.37
7337;BME280;54510;42.016;23.098;2023-05-31T08:32:40;-21857.28;;;26.49;50.33
7337;BME280;54510;42.016;23.098;2023-05-31T08:35:06;-21864.09;;;26.74;50.51
7337;BME280;54510;42.016;23.098;2023-05-31T08:37:35;-21871.44;;;27.02;49.63
7337;BME280;54510;42.016;23.098;2023-05-31T08:40:00;-21871.28;;;27.01;49.47
7337;BME280;54510;42.016;23.098;2023-05-31T08:42:27;-21873.59;;;27.10;48.66
7337;BME280;54510;42.016;23.098;2023-05-31T08:44:53;-21875.22;;;27.16;49.03
7337;BME280;54510;42.016;23.098;2023-05-31T08:47:35;-21868.28;;;26.90;49.48
7337;BME280;54510;42.016;23.098;2023-05-31T08:50:02;-21866.41;;;26.83;49.49
7337;BME280;54510;42.016;23.098;2023-05-31T08:52:28;-21861.50;;;26.65;49.24
7337;BME280;54510;42.016;23.098;2023-05-31T08:54:55;-21867.75;;;26.88;48.51
7337;BME280;54510;42.016;23.098;2023-05-31T08:57:21;-21868.44;;;26.91;48.10
7337;BME280;54510;42.016;23.098;2023-05-31T08:59:46;-21867.22;;;26.86;47.89
7337;BME280;54510;42.016;23.098;2023-05-31T09:02:12;-21859.06;;;26.56;49.02
7337;BME280;54510;42.016;23.098;2023-05-31T09:04:39;-21857.84;;;26.51;49.44
7337;BME280;54510;42.016;23.098;2023-05-31T09:07:04;-21873.47;;;27.09;48.96
7337;BME280;54510;42.016;23.098;2023-05-31T09:09:30;-21881.88;;;27.41;47.59
7337;BME280;54510;42.016;23.098;2023-05-31T09:11:55;-21889.06;;;27.68;47.17
7337;BME280;54510;42.016;23.098;2023-05-31T09:14:22;-21889.06;;;27.68;47.49
7337;BME280;54510;42.016;23.098;2023-05-31T09:16:48;-21890.00;;;27.71;46.64
7337;BME280;54510;42.016;23.098;2023-05-31T09:19:15;-21884.03;;;27.49;47.41
7337;BME280;54510;42.016;23.098;2023-05-31T09:21:41;-21885.13;;;27.53;46.29
7337;BME280;54510;42.016;23.098;2023-05-31T09:24:06;-21882.13;;;27.42;46.98
7337;BME280;54510;42.016;23.098;2023-05-31T09:26:32;-21884.31;;;27.50;46.57
7337;BME280;54510;42.016;23.098;2023-05-31T09:28:58;-21880.09;;;27.34;46.71
7337;BME280;54510;42.016;23.098;2023-05-31T09:31:23;-21880.78;;;27.37;47.52
7337;BME280;54510;42.016;23.098;2023-05-31T09:33:49;-21885.41;;;27.54;47.28
7337;BME280;54510;42.016;23.098;2023-05-31T09:36:22;-21891.91;;;27.78;47.37
7337;BME280;54510;42.016;23.098;2023-05-31T09:38:48;-21892.72;;;27.81;46.47
7337;BME280;54510;42.016;23.098;2023-05-31T09:43:40;-21897.31;;;27.99;45.48
7337;BME280;54510;42.016;23.098;2023-05-31T09:46:10;-21901.81;;;28.15;45.83
7337;BME280;54510;42.016;23.098;2023-05-31T09:48:35;-21905.47;;;28.29;44.86
7337;BME280;54510;42.016;23.098;2023-05-31T09:51:00;-21903.69;;;28.22;45.85
7337;BME280;54510;42.016;23.098;2023-05-31T09:53:26;-21906.69;;;28.34;45.67
7337;BME280;54510;42.016;23.098;2023-05-31T09:55:51;-21899.22;;;28.06;45.35
7337;BME280;54510;42.016;23.098;2023-05-31T09:58:27;-21898.94;;;28.05;45.33
7337;BME280;54510;42.016;23.098;2023-05-31T10:00:55;-21900.84;;;28.12;46.27
7337;BME280;54510;42.016;23.098;2023-05-31T10:03:23;-21896.25;;;27.95;46.02
7337;BME280;54510;42.016;23.098;2023-05-31T10:05:49;-21899.22;;;28.06;45.98
7337;BME280;54510;42.016;23.098;2023-05-31T10:08:14;-21907.78;;;28.38;45.81
7337;BME280;54510;42.016;23.098;2023-05-31T10:10:40;-21907.22;;;28.36;44.87
7337;BME280;54510;42.016;23.098;2023-05-31T10:13:05;-21913.19;;;28.58;44.63
7337;BME280;54510;42.016;23.098;2023-05-31T10:15:36;-21919.56;;;28.82;44.23
7337;BME280;54510;42.016;23.098;2023-05-31T10:18:03;-21920.22;;;28.84;42.94
7337;BME280;54510;42.016;23.098;2023-05-31T10:20:29;-21910.88;;;28.49;43.88
7337;BME280;54510;42.016;23.098;2023-05-31T10:22:57;-21921.44;;;28.89;42.86
7337;BME280;54510;42.016;23.098;2023-05-31T10:25:30;-21919.69;;;28.82;42.87
7337;BME280;54510;42.016;23.098;2023-05-31T10:27:57;-21928.22;;;29.14;42.55
7337;BME280;54510;42.016;23.098;2023-05-31T10:30:25;-21933.50;;;29.34;42.00
7337;BME280;54510;42.016;23.098;2023-05-31T10:32:54;-21942.69;;;29.68;42.41
7337;BME280;54510;42.016;23.098;2023-05-31T10:35:21;-21948.22;;;29.89;41.76
7337;BME280;54510;42.016;23.098;2023-05-31T10:37:47;-21949.84;;;29.95;40.76
7337;BME280;54510;42.016;23.098;2023-05-31T10:40:19;-21923.19;;;28.95;41.51
7337;BME280;54510;42.016;23.098;2023-05-31T10:45:45;-21950.13;;;29.96;40.71
7337;BME280;54510;42.016;23.098;2023-05-31T10:48:18;-21952.69;;;30.06;40.46
7337;BME280;54510;42.016;23.098;2023-05-31T10:50:51;-21965.38;;;30.53;39.60
7337;BME280;54510;42.016;23.098;2023-05-31T10:53:16;-21961.47;;;30.39;38.57
7337;BME280;54510;42.016;23.098;2023-05-31T10:55:41;-21971.19;;;30.75;37.80
7337;BME280;54510;42.016;23.098;2023-05-31T10:58:07;-21975.78;;;30.92;37.49
7337;BME280;54510;42.016;23.098;2023-05-31T11:00:48;-21977.66;;;30.99;37.66
7337;BME280;54510;42.016;23.098;2023-05-31T11:03:13;-21974.41;;;30.87;37.23
7337;BME280;54510;42.016;23.098;2023-05-31T11:05:53;-21977.13;;;30.97;37.84
7337;BME280;54510;42.016;23.098;2023-05-31T11:08:19;-21977.13;;;30.97;36.27
7337;BME280;54510;42.016;23.098;2023-05-31T11:10:44;-21975.22;;;30.90;36.75
7337;BME280;54510;42.016;23.098;2023-05-31T11:13:09;-21978.47;;;31.02;36.74
7337;BME280;54510;42.016;23.098;2023-05-31T11:15:43;-21985.34;;;31.28;36.18
7337;BME280;54510;42.016;23.098;2023-05-31T11:18:09;-21990.06;;;31.46;35.89
7337;BME280;54510;42.016;23.098;2023-05-31T11:20:35;-21991.41;;;31.51;34.71
7337;BME280;54510;42.016;23.098;2023-05-31T11:25:41;-21998.56;;;31.78;31.75
7337;BME280;54510;42.016;23.098;2023-05-31T11:28:07;-22005.56;;;32.04;31.65
7337;BME280;54510;42.016;23.098;2023-05-31T11:30:35;-22008.94;;;32.17;32.31
7337;BME280;54510;42.016;23.098;2023-05-31T11:33:00;-22006.91;;;32.09;32.56
7337;BME280;54510;42.016;23.098;2023-05-31T11:35:26;-22005.97;;;32.06;32.95
7337;BME280;54510;42.016;23.098;2023-05-31T11:37:58;-22005.44;;;32.04;32.96
7337;BME280;54510;42.016;23.098;2023-05-31T11:40:24;-21996.28;;;31.69;33.63
7337;BME280;54510;42.016;23.098;2023-05-31T11:42:50;-21992.22;;;31.54;34.42
7337;BME280;54510;42.016;23.098;2023-05-31T11:45:16;-21986.44;;;31.32;34.36
7337;BME280;54510;42.016;23.098;2023-05-31T11:50:23;-21991.16;;;31.50;34.49
7337;BME280;54510;42.016;23.098;2023-05-31T11:52:48;-21988.44;;;31.40;33.40
7337;BME280;54510;42.016;23.098;2023-05-31T11:55:15;-21996.28;;;31.69;34.31
7337;BME280;54510;42.016;23.098;2023-05-31T11:57:45;-21997.47;;;31.74;33.56
7337;BME280;54510;42.016;23.098;2023-05-31T12:00:11;-21998.44;;;31.77;33.53
7337;BME280;54510;42.016;23.098;2023-05-31T12:02:39;-22007.03;;;32.10;34.52
7337;BME280;54510;42.016;23.098;2023-05-31T12:05:05;-22006.50;;;32.08;34.54
7337;BME280;54510;42.016;23.098;2023-05-31T12:07:31;-22010.69;;;32.24;34.74
7337;BME280;54510;42.016;23.098;2023-05-31T12:09:56;-22013.38;;;32.34;34.44
7337;BME280;54510;42.016;23.098;2023-05-31T12:12:22;-22016.88;;;32.47;34.65
7337;BME280;54510;42.016;23.098;2023-05-31T12:14:54;-22019.28;;;32.56;34.42
7337;BME280;54510;42.016;23.098;2023-05-31T12:17:22;-22023.19;;;32.71;34.32
7337;BME280;54510;42.016;23.098;2023-05-31T12:19:47;-22022.13;;;32.67;34.08
7337;BME280;54510;42.016;23.098;2023-05-31T12:22:13;-22025.88;;;32.81;33.68
7337;BME280;54510;42.016;23.098;2023-05-31T12:24:47;-22031.25;;;33.01;33.71
7337;BME280;54510;42.016;23.098;2023-05-31T12:27:12;-22037.06;;;33.23;33.68
7337;BME280;54510;42.016;23.098;2023-05-31T12:29:39;-22039.34;;;33.31;33.73
7337;BME280;54510;42.016;23.098;2023-05-31T12:32:04;-22041.47;;;33.40;32.76
7337;BME280;54510;42.016;23.098;2023-05-31T12:34:32;-22046.72;;;33.59;32.62
7337;BME280;54510;42.016;23.098;2023-05-31T12:36:58;-22042.69;;;33.44;32.36
7337;BME280;54510;42.016;23.098;2023-05-31T12:39:28;-22046.84;;;33.60;31.65
7337;BME280;54510;42.016;23.098;2023-05-31T12:41:53;-22049.81;;;33.71;31.82
7337;BME280;54510;42.016;23.098;2023-05-31T12:44:20;-22047.94;;;33.64;32.45
7337;BME280;54510;42.016;23.098;2023-05-31T12:46:46;-22048.06;;;33.64;32.51
7337;BME280;54510;42.016;23.098;2023-05-31T12:49:12;-22056.53;;;33.96;32.35
7337;BME280;54510;42.016;23.098;2023-05-31T12:51:38;-22022.41;;;32.68;32.38
7337;BME280;54510;42.016;23.098;2023-05-31T12:54:08;-22007.59;;;32.12;34.18
7337;BME280;54510;42.016;23.098;2023-05-31T12:56:34;-21996.69;;;31.71;33.61